CFG2QA LEZL-EDDM
Flight info
| Callsign | CFG2QA |
|---|---|
| Flight time | N/A |
| Altitude | 34000 |
| Route | BUDIT DCT ETURA DCT TOSTO DCT OLPOS DCT BEGOX DCT LASPO DCT SOPET DCT DIKUT DCT TORDU DCT LOTOS DCT EBROX DCT PEXOT DCT RODRA DCT BCN DCT SALON DCT AGENA DCT BODEQ DCT LUMAS DCT UNANA DCT STP DCT RAPED DCT PIGOS DCT EKSID DCT NOSTA DCT NOPMU DCT ROBAS DCT TAGIP DCT GUNGO DCT TISAX DCT IVKAL T102 NINUR T101 BETOS BETOS1B |
| Aircraft | B753/M-SDE2E3FGHIJ3J4J7RWXY/LB1 |
Departure
| Time | 2026-03-24 17:22 |
|---|---|
| Airport | Seville Airport (LEZL) |
Arrival
| Time | N/A |
|---|---|
| Airport | Munich Airport (EDDM) |
| Time | Latitude | Longitude | Altitude | Speed | Heading |
|---|---|---|---|---|---|
| 2026-03-24 17:09 | 37.42184 | -5.89723 | 93 ft | 0 kts | 315° |
| 2026-03-24 17:17 | 37.42184 | -5.89724 | 93 ft | 0 kts | 315° |
| 2026-03-24 17:17 | 37.42185 | -5.89724 | 93 ft | 0 kts | 315° |
| 2026-03-24 17:18 | 37.42193 | -5.89735 | 93 ft | 4 kts | 306° |
| 2026-03-24 17:18 | 37.42199 | -5.89778 | 94 ft | 4 kts | 264° |
| 2026-03-24 17:18 | 37.42186 | -5.89832 | 93 ft | 8 kts | 245° |
| 2026-03-24 17:18 | 37.42140 | -5.89909 | 93 ft | 12 kts | 227° |
| 2026-03-24 17:19 | 37.42071 | -5.90005 | 91 ft | 16 kts | 237° |
| 2026-03-24 17:19 | 37.42049 | -5.90144 | 91 ft | 16 kts | 272° |
| 2026-03-24 17:19 | 37.42038 | -5.90276 | 90 ft | 11 kts | 225° |
| 2026-03-24 17:19 | 37.41988 | -5.90326 | 89 ft | 8 kts | 246° |
| 2026-03-24 17:20 | 37.41978 | -5.90431 | 87 ft | 18 kts | 266° |
| 2026-03-24 17:20 | 37.41979 | -5.90651 | 86 ft | 31 kts | 276° |
| 2026-03-24 17:20 | 37.41978 | -5.90974 | 83 ft | 41 kts | 270° |
| 2026-03-24 17:20 | 37.41978 | -5.91077 | 83 ft | 9 kts | 270° |
| 2026-03-24 17:21 | 37.41974 | -5.91199 | 82 ft | 15 kts | 263° |
| 2026-03-24 17:21 | 37.41897 | -5.91302 | 80 ft | 19 kts | 170° |
| 2026-03-24 17:21 | 37.41804 | -5.91200 | 80 ft | 17 kts | 143° |
| 2026-03-24 17:21 | 37.41784 | -5.91114 | 80 ft | 5 kts | 82° |
| 2026-03-24 17:22 | 37.41787 | -5.90981 | 83 ft | 41 kts | 90° |
| 2026-03-24 17:22 | 37.41795 | -5.90271 | 87 ft | 119 kts | 89° |
| 2026-03-24 17:22 | 37.41787 | -5.88969 | 240 ft | 174 kts | 90° |
| 2026-03-24 17:22 | 37.41824 | -5.87335 | 914 ft | 199 kts | 85° |
| 2026-03-24 17:23 | 37.41902 | -5.85677 | 2040 ft | 190 kts | 90° |
| 2026-03-24 17:23 | 37.41863 | -5.83944 | 2453 ft | 209 kts | 91° |
| 2026-03-24 17:23 | 37.41893 | -5.82135 | 3215 ft | 209 kts | 81° |
| 2026-03-24 17:23 | 37.42156 | -5.80333 | 3897 ft | 213 kts | 78° |
| 2026-03-24 17:24 | 37.42426 | -5.78511 | 4689 ft | 212 kts | 78° |
| 2026-03-24 17:24 | 37.42713 | -5.76667 | 5343 ft | 217 kts | 74° |
| 2026-03-24 17:24 | 37.43241 | -5.74936 | 6094 ft | 215 kts | 65° |
| 2026-03-24 17:24 | 37.43838 | -5.73228 | 6822 ft | 216 kts | 66° |
| 2026-03-24 17:25 | 37.44439 | -5.71493 | 7408 ft | 222 kts | 66° |
| 2026-03-24 17:25 | 37.45063 | -5.69704 | 8119 ft | 223 kts | 66° |
| 2026-03-24 17:25 | 37.45689 | -5.67910 | 8701 ft | 229 kts | 66° |
| 2026-03-24 17:25 | 37.46341 | -5.66043 | 9155 ft | 243 kts | 66° |
| 2026-03-24 17:26 | 37.47056 | -5.64000 | 9428 ft | 266 kts | 66° |
| 2026-03-24 17:26 | 37.47817 | -5.61824 | 9929 ft | 280 kts | 66° |
| 2026-03-24 17:26 | 37.48606 | -5.59565 | 10535 ft | 288 kts | 66° |
| 2026-03-24 17:26 | 37.49441 | -5.57169 | 10868 ft | 308 kts | 68° |
| 2026-03-24 17:27 | 37.50034 | -5.54513 | 11180 ft | 326 kts | 81° |
| 2026-03-24 17:27 | 37.50406 | -5.51603 | 11542 ft | 343 kts | 79° |
| 2026-03-24 17:27 | 37.50868 | -5.48559 | 11771 ft | 363 kts | 78° |
| 2026-03-24 17:27 | 37.51363 | -5.45452 | 12457 ft | 366 kts | 78° |
| 2026-03-24 17:28 | 37.51875 | -5.42315 | 13083 ft | 372 kts | 78° |
| 2026-03-24 17:28 | 37.52407 | -5.39107 | 13798 ft | 373 kts | 78° |
| 2026-03-24 17:28 | 37.52943 | -5.35887 | 14416 ft | 377 kts | 78° |
| 2026-03-24 17:28 | 37.53481 | -5.32670 | 15117 ft | 378 kts | 78° |
| 2026-03-24 17:29 | 37.54023 | -5.29430 | 15666 ft | 382 kts | 78° |
| 2026-03-24 17:29 | 37.54568 | -5.26167 | 16325 ft | 382 kts | 78° |
| 2026-03-24 17:29 | 37.55118 | -5.22880 | 16881 ft | 384 kts | 78° |
| 2026-03-24 17:29 | 37.55663 | -5.19606 | 17376 ft | 387 kts | 78° |
| 2026-03-24 17:30 | 37.56222 | -5.16256 | 17990 ft | 387 kts | 78° |
| 2026-03-24 17:30 | 37.56775 | -5.12934 | 18480 ft | 388 kts | 78° |
| 2026-03-24 17:30 | 37.57321 | -5.09638 | 18931 ft | 391 kts | 78° |
| 2026-03-24 17:30 | 37.57879 | -5.06273 | 19439 ft | 390 kts | 78° |
| 2026-03-24 17:31 | 37.58430 | -5.02942 | 19843 ft | 393 kts | 78° |
| 2026-03-24 17:31 | 37.58989 | -4.99554 | 20272 ft | 394 kts | 78° |
| 2026-03-24 17:31 | 37.59543 | -4.96199 | 20794 ft | 392 kts | 78° |
| 2026-03-24 17:31 | 37.60103 | -4.92796 | 21079 ft | 397 kts | 78° |
| 2026-03-24 17:32 | 37.60654 | -4.89437 | 21577 ft | 395 kts | 78° |
| 2026-03-24 17:32 | 37.61213 | -4.86025 | 21909 ft | 397 kts | 78° |
| 2026-03-24 17:32 | 37.61767 | -4.82637 | 22317 ft | 397 kts | 78° |
| 2026-03-24 17:32 | 37.62323 | -4.79237 | 22654 ft | 399 kts | 77° |
| 2026-03-24 17:33 | 37.62884 | -4.75789 | 23042 ft | 398 kts | 78° |
| 2026-03-24 17:33 | 37.63438 | -4.72379 | 23421 ft | 398 kts | 78° |
| 2026-03-24 17:33 | 37.63998 | -4.68936 | 23630 ft | 402 kts | 78° |
| 2026-03-24 17:33 | 37.64552 | -4.65511 | 23993 ft | 402 kts | 77° |
| 2026-03-24 17:34 | 37.65113 | -4.62047 | 24258 ft | 404 kts | 77° |
| 2026-03-24 17:34 | 37.65673 | -4.58574 | 24479 ft | 407 kts | 78° |
| 2026-03-24 17:34 | 37.66238 | -4.55068 | 24848 ft | 406 kts | 77° |
| 2026-03-24 17:34 | 37.66801 | -4.51568 | 25023 ft | 409 kts | 78° |
| 2026-03-24 17:35 | 37.67511 | -4.48109 | 25309 ft | 409 kts | 70° |
| 2026-03-24 17:35 | 37.68692 | -4.44869 | 25530 ft | 412 kts | 60° |
| 2026-03-24 17:35 | 37.70351 | -4.41919 | 25818 ft | 414 kts | 51° |
| 2026-03-24 17:35 | 37.72265 | -4.39142 | 26038 ft | 415 kts | 53° |
| 2026-03-24 17:36 | 37.74041 | -4.36274 | 26281 ft | 415 kts | 54° |
| 2026-03-24 17:36 | 37.75733 | -4.33352 | 26461 ft | 417 kts | 57° |
| 2026-03-24 17:36 | 37.77398 | -4.30335 | 26751 ft | 416 kts | 57° |
| 2026-03-24 17:36 | 37.79033 | -4.27292 | 26957 ft | 418 kts | 58° |
| 2026-03-24 17:37 | 37.80635 | -4.24243 | 27204 ft | 418 kts | 58° |
| 2026-03-24 17:37 | 37.82246 | -4.21139 | 27327 ft | 422 kts | 58° |
| 2026-03-24 17:37 | 37.83838 | -4.18036 | 27597 ft | 421 kts | 58° |
| 2026-03-24 17:37 | 37.85428 | -4.14918 | 27819 ft | 422 kts | 59° |
| 2026-03-24 17:38 | 37.87012 | -4.11800 | 27923 ft | 425 kts | 59° |
| 2026-03-24 17:38 | 37.88607 | -4.08647 | 28157 ft | 425 kts | 59° |
| 2026-03-24 17:38 | 37.90208 | -4.05476 | 28333 ft | 427 kts | 58° |
| 2026-03-24 17:38 | 37.91793 | -4.02328 | 28497 ft | 428 kts | 59° |
| 2026-03-24 17:39 | 37.93407 | -3.99117 | 28754 ft | 427 kts | 58° |
| 2026-03-24 17:39 | 37.95013 | -3.95920 | 28861 ft | 430 kts | 59° |
| 2026-03-24 17:39 | 37.96620 | -3.92715 | 28979 ft | 432 kts | 58° |
| 2026-03-24 17:39 | 37.98204 | -3.89553 | 29189 ft | 432 kts | 58° |
| 2026-03-24 17:40 | 37.99835 | -3.86295 | 29342 ft | 433 kts | 59° |
| 2026-03-24 17:40 | 38.01426 | -3.83111 | 29577 ft | 432 kts | 58° |
| 2026-03-24 17:40 | 38.03035 | -3.79888 | 29761 ft | 432 kts | 58° |
| 2026-03-24 17:40 | 38.04646 | -3.76659 | 29921 ft | 432 kts | 58° |
| 2026-03-24 17:41 | 38.06237 | -3.73467 | 30124 ft | 432 kts | 58° |
| 2026-03-24 17:41 | 38.07842 | -3.70242 | 30309 ft | 432 kts | 59° |
| 2026-03-24 17:41 | 38.09448 | -3.67015 | 30584 ft | 430 kts | 59° |
| 2026-03-24 17:41 | 38.11048 | -3.63793 | 30730 ft | 430 kts | 59° |
| 2026-03-24 17:42 | 38.12615 | -3.60635 | 30894 ft | 430 kts | 59° |
| 2026-03-24 17:42 | 38.14227 | -3.57383 | 31022 ft | 431 kts | 59° |
| 2026-03-24 17:42 | 38.15825 | -3.54157 | 31162 ft | 431 kts | 59° |
| 2026-03-24 17:42 | 38.17401 | -3.50974 | 31318 ft | 431 kts | 59° |
| 2026-03-24 17:43 | 38.22187 | -3.41282 | 31727 ft | 430 kts | 59° |
| 2026-03-24 17:43 | 38.23775 | -3.38059 | 31860 ft | 430 kts | 59° |
| 2026-03-24 17:44 | 38.25361 | -3.34838 | 32018 ft | 429 kts | 60° |
| 2026-03-24 17:44 | 38.26940 | -3.31626 | 32159 ft | 429 kts | 60° |
| 2026-03-24 17:44 | 38.28511 | -3.28431 | 32244 ft | 430 kts | 60° |
| 2026-03-24 17:44 | 38.30108 | -3.25176 | 32423 ft | 429 kts | 60° |
| 2026-03-24 17:45 | 38.31667 | -3.21997 | 32478 ft | 430 kts | 60° |
| 2026-03-24 17:45 | 38.33265 | -3.18735 | 32599 ft | 430 kts | 60° |
| 2026-03-24 17:45 | 38.34844 | -3.15510 | 32709 ft | 429 kts | 60° |
| 2026-03-24 17:45 | 38.36419 | -3.12290 | 32898 ft | 427 kts | 60° |
| 2026-03-24 17:46 | 38.37985 | -3.09084 | 32899 ft | 430 kts | 60° |
| 2026-03-24 17:46 | 38.39553 | -3.05870 | 33008 ft | 429 kts | 60° |
| 2026-03-24 17:46 | 38.41119 | -3.02659 | 33093 ft | 429 kts | 60° |
| 2026-03-24 17:46 | 38.42710 | -2.99391 | 33223 ft | 428 kts | 60° |
| 2026-03-24 17:47 | 38.44276 | -2.96171 | 33294 ft | 428 kts | 60° |
| 2026-03-24 17:47 | 38.47425 | -2.89688 | 33416 ft | 429 kts | 60° |
| 2026-03-24 17:47 | 38.48979 | -2.86485 | 33546 ft | 428 kts | 60° |
| 2026-03-24 17:48 | 38.50561 | -2.83219 | 33547 ft | 429 kts | 60° |
| 2026-03-24 17:48 | 38.53691 | -2.76754 | 33745 ft | 427 kts | 60° |
| 2026-03-24 17:49 | 38.56807 | -2.70299 | 33888 ft | 427 kts | 60° |
| 2026-03-24 17:49 | 38.59930 | -2.63817 | 33943 ft | 428 kts | 60° |
| 2026-03-24 17:50 | 38.63049 | -2.57334 | 33999 ft | 429 kts | 60° |
| 2026-03-24 17:50 | 38.66172 | -2.50827 | 34099 ft | 429 kts | 60° |
| 2026-03-24 17:51 | 38.69282 | -2.44335 | 34175 ft | 429 kts | 60° |
| 2026-03-24 17:51 | 38.72406 | -2.37799 | 34187 ft | 430 kts | 60° |
| 2026-03-24 17:52 | 38.75539 | -2.31231 | 34201 ft | 432 kts | 60° |
| 2026-03-24 17:52 | 38.78658 | -2.24679 | 34194 ft | 433 kts | 60° |
| 2026-03-24 17:53 | 38.81789 | -2.18089 | 34206 ft | 435 kts | 60° |
| 2026-03-24 17:53 | 38.84961 | -2.11402 | 34210 ft | 437 kts | 60° |
| 2026-03-24 17:54 | 38.88096 | -2.04774 | 34216 ft | 438 kts | 60° |
| 2026-03-24 17:54 | 38.91261 | -1.98071 | 34224 ft | 440 kts | 60° |
| 2026-03-24 17:55 | 38.94440 | -1.91326 | 34235 ft | 441 kts | 60° |
| 2026-03-24 17:55 | 38.97610 | -1.84581 | 34233 ft | 442 kts | 60° |
| 2026-03-24 17:56 | 39.00788 | -1.77808 | 34231 ft | 444 kts | 60° |
| 2026-03-24 17:56 | 39.03960 | -1.71032 | 34228 ft | 445 kts | 59° |
| 2026-03-24 17:57 | 39.07161 | -1.64182 | 34215 ft | 447 kts | 60° |
| 2026-03-24 17:57 | 39.10359 | -1.57321 | 34204 ft | 448 kts | 60° |
| 2026-03-24 17:58 | 39.13535 | -1.50493 | 34190 ft | 436 kts | 59° |
| 2026-03-24 17:58 | 39.16622 | -1.43843 | 34195 ft | 435 kts | 59° |
| 2026-03-24 17:59 | 39.19750 | -1.37087 | 34198 ft | 441 kts | 59° |
| 2026-03-24 17:59 | 39.22876 | -1.30323 | 34212 ft | 440 kts | 60° |
| 2026-03-24 18:00 | 39.26009 | -1.23531 | 34216 ft | 442 kts | 60° |
| 2026-03-24 18:00 | 39.29159 | -1.16686 | 34211 ft | 442 kts | 60° |
| 2026-03-24 18:01 | 39.32287 | -1.09874 | 34212 ft | 443 kts | 59° |
| 2026-03-24 18:01 | 39.35442 | -1.02986 | 34217 ft | 442 kts | 59° |
| 2026-03-24 18:02 | 39.38560 | -0.96170 | 34226 ft | 441 kts | 59° |
| 2026-03-24 18:02 | 39.41709 | -0.89266 | 34222 ft | 443 kts | 59° |
| 2026-03-24 18:03 | 39.44841 | -0.82387 | 34219 ft | 444 kts | 59° |
| 2026-03-24 18:03 | 39.47975 | -0.75486 | 34221 ft | 444 kts | 59° |
| 2026-03-24 18:04 | 39.51118 | -0.68550 | 34214 ft | 444 kts | 59° |
| 2026-03-24 18:04 | 39.54221 | -0.61689 | 34212 ft | 443 kts | 59° |
| 2026-03-24 18:05 | 39.57359 | -0.54735 | 34215 ft | 445 kts | 59° |
| 2026-03-24 18:05 | 39.60465 | -0.47836 | 34216 ft | 443 kts | 59° |
| 2026-03-24 18:06 | 39.63566 | -0.40932 | 34219 ft | 445 kts | 59° |
| 2026-03-24 18:06 | 39.66665 | -0.34019 | 34219 ft | 445 kts | 60° |
| 2026-03-24 18:07 | 39.69773 | -0.27068 | 34222 ft | 444 kts | 59° |
| 2026-03-24 18:07 | 39.72859 | -0.20153 | 34223 ft | 445 kts | 59° |
| 2026-03-24 18:08 | 39.75958 | -0.13192 | 34219 ft | 444 kts | 59° |
| 2026-03-24 18:08 | 39.79025 | -0.06286 | 34224 ft | 444 kts | 59° |
| 2026-03-24 18:09 | 39.82114 | 0.00684 | 34221 ft | 444 kts | 59° |
| 2026-03-24 18:09 | 39.85183 | 0.07622 | 34220 ft | 444 kts | 59° |
| 2026-03-24 18:10 | 39.88264 | 0.14602 | 34225 ft | 446 kts | 59° |
| 2026-03-24 18:10 | 39.91342 | 0.21595 | 34220 ft | 445 kts | 59° |
| 2026-03-24 18:11 | 39.94414 | 0.28590 | 34222 ft | 445 kts | 59° |
| 2026-03-24 18:11 | 39.97469 | 0.35559 | 34213 ft | 445 kts | 59° |
| 2026-03-24 18:12 | 40.00523 | 0.42544 | 34206 ft | 443 kts | 59° |
| 2026-03-24 18:12 | 40.03570 | 0.49528 | 34204 ft | 445 kts | 59° |
| 2026-03-24 18:13 | 40.06638 | 0.56573 | 34207 ft | 445 kts | 59° |
| 2026-03-24 18:13 | 40.09679 | 0.63576 | 34208 ft | 446 kts | 59° |
| 2026-03-24 18:14 | 40.12739 | 0.70641 | 34217 ft | 445 kts | 59° |
| 2026-03-24 18:14 | 40.15783 | 0.77680 | 34220 ft | 445 kts | 59° |
| 2026-03-24 18:15 | 40.18818 | 0.84715 | 34220 ft | 445 kts | 59° |
| 2026-03-24 18:15 | 40.21854 | 0.91772 | 34222 ft | 446 kts | 59° |
| 2026-03-24 18:16 | 40.24886 | 0.98834 | 34223 ft | 446 kts | 59° |
| 2026-03-24 18:16 | 40.27915 | 1.05907 | 34220 ft | 445 kts | 59° |
| 2026-03-24 18:17 | 40.30925 | 1.12950 | 34218 ft | 444 kts | 59° |
| 2026-03-24 18:17 | 40.33934 | 1.20006 | 34210 ft | 445 kts | 59° |
| 2026-03-24 18:18 | 40.36956 | 1.27110 | 34203 ft | 446 kts | 59° |
| 2026-03-24 18:18 | 40.39955 | 1.34177 | 34201 ft | 445 kts | 59° |
| 2026-03-24 18:19 | 40.41911 | 1.38794 | 34203 ft | 444 kts | 59° |
| 2026-03-24 18:19 | 40.44906 | 1.45880 | 34204 ft | 444 kts | 59° |
| 2026-03-24 18:20 | 40.47896 | 1.52969 | 34207 ft | 443 kts | 59° |
| 2026-03-24 18:20 | 40.50874 | 1.60046 | 34207 ft | 443 kts | 59° |
| 2026-03-24 18:21 | 40.53845 | 1.67122 | 34213 ft | 445 kts | 59° |
| 2026-03-24 18:21 | 40.56818 | 1.74222 | 34207 ft | 443 kts | 59° |
| 2026-03-24 18:22 | 40.59795 | 1.81346 | 34212 ft | 443 kts | 59° |
| 2026-03-24 18:22 | 40.62751 | 1.88438 | 34211 ft | 443 kts | 59° |
| 2026-03-24 18:23 | 40.65712 | 1.95560 | 34210 ft | 444 kts | 59° |
| 2026-03-24 18:23 | 40.68656 | 2.02654 | 34207 ft | 444 kts | 59° |
| 2026-03-24 18:24 | 40.71622 | 2.09820 | 34194 ft | 442 kts | 59° |
| 2026-03-24 18:24 | 40.74534 | 2.16873 | 34192 ft | 441 kts | 59° |
| 2026-03-24 18:25 | 40.77474 | 2.24009 | 34189 ft | 442 kts | 59° |
| 2026-03-24 18:25 | 40.80389 | 2.31101 | 34191 ft | 442 kts | 59° |
| 2026-03-24 18:26 | 40.83321 | 2.38251 | 34193 ft | 443 kts | 59° |
| 2026-03-24 18:26 | 40.86237 | 2.45383 | 34189 ft | 442 kts | 59° |
| 2026-03-24 18:27 | 40.89149 | 2.52517 | 34192 ft | 442 kts | 59° |
| 2026-03-24 18:27 | 40.92063 | 2.59678 | 34190 ft | 441 kts | 59° |
| 2026-03-24 18:28 | 40.94961 | 2.66816 | 34184 ft | 436 kts | 59° |
| 2026-03-24 18:28 | 40.97779 | 2.73776 | 34191 ft | 426 kts | 59° |
| 2026-03-24 18:29 | 41.00580 | 2.80702 | 34189 ft | 433 kts | 59° |
| 2026-03-24 18:29 | 41.03416 | 2.87735 | 34181 ft | 431 kts | 59° |
| 2026-03-24 18:30 | 41.06222 | 2.94710 | 34174 ft | 428 kts | 59° |
| 2026-03-24 18:30 | 41.09028 | 3.01701 | 34171 ft | 429 kts | 59° |
| 2026-03-24 18:31 | 41.11836 | 3.08712 | 34181 ft | 431 kts | 59° |
| 2026-03-24 18:31 | 41.14615 | 3.15671 | 34189 ft | 429 kts | 59° |
| 2026-03-24 18:32 | 41.17407 | 3.22678 | 34196 ft | 428 kts | 59° |
| 2026-03-24 18:32 | 41.20177 | 3.29646 | 34199 ft | 429 kts | 59° |
| 2026-03-24 18:33 | 41.22955 | 3.36650 | 34196 ft | 427 kts | 59° |
| 2026-03-24 18:33 | 41.25714 | 3.43620 | 34197 ft | 429 kts | 59° |
| 2026-03-24 18:34 | 41.28496 | 3.50668 | 34193 ft | 430 kts | 58° |
| 2026-03-24 18:34 | 41.31244 | 3.57647 | 34193 ft | 428 kts | 58° |
| 2026-03-24 18:35 | 41.34005 | 3.64674 | 34191 ft | 428 kts | 58° |
| 2026-03-24 18:35 | 41.36746 | 3.71668 | 34195 ft | 429 kts | 59° |
| 2026-03-24 18:36 | 41.39498 | 3.78709 | 34195 ft | 429 kts | 59° |
| 2026-03-24 18:36 | 41.42254 | 3.85773 | 34194 ft | 430 kts | 59° |
| 2026-03-24 18:37 | 41.44989 | 3.92802 | 34191 ft | 429 kts | 59° |
| 2026-03-24 18:37 | 41.47721 | 3.99840 | 34190 ft | 429 kts | 59° |
| 2026-03-24 18:38 | 41.50452 | 4.06891 | 34190 ft | 427 kts | 59° |
| 2026-03-24 18:38 | 41.53169 | 4.13926 | 34189 ft | 429 kts | 59° |
| 2026-03-24 18:39 | 41.55900 | 4.21014 | 34190 ft | 428 kts | 59° |
| 2026-03-24 18:39 | 41.58614 | 4.28071 | 34191 ft | 429 kts | 58° |
| 2026-03-24 18:40 | 41.61331 | 4.35158 | 34190 ft | 428 kts | 58° |
| 2026-03-24 18:40 | 41.64028 | 4.42208 | 34192 ft | 428 kts | 59° |
| 2026-03-24 18:41 | 41.66719 | 4.49260 | 34187 ft | 426 kts | 59° |
| 2026-03-24 18:41 | 41.69418 | 4.56349 | 34185 ft | 427 kts | 58° |
| 2026-03-24 18:42 | 41.72097 | 4.63405 | 34185 ft | 428 kts | 58° |
| 2026-03-24 18:42 | 41.75469 | 4.69778 | 34197 ft | 419 kts | 42° |
| 2026-03-24 18:43 | 41.81807 | 4.77912 | 34181 ft | 420 kts | 42° |
| 2026-03-24 18:43 | 41.85954 | 4.83347 | 34178 ft | 418 kts | 42° |
| 2026-03-24 18:44 | 41.92181 | 4.91571 | 34171 ft | 420 kts | 42° |
| 2026-03-24 18:45 | 41.96325 | 4.97070 | 34173 ft | 422 kts | 42° |
| 2026-03-24 18:45 | 42.00482 | 5.02601 | 34169 ft | 420 kts | 43° |
| 2026-03-24 18:46 | 42.04626 | 5.08126 | 34170 ft | 420 kts | 42° |
| 2026-03-24 18:46 | 42.08778 | 5.13675 | 34170 ft | 419 kts | 42° |
| 2026-03-24 18:47 | 42.12907 | 5.19203 | 34181 ft | 419 kts | 42° |
| 2026-03-24 18:47 | 42.17047 | 5.24757 | 34178 ft | 420 kts | 42° |
| 2026-03-24 18:48 | 42.21166 | 5.30293 | 34175 ft | 421 kts | 42° |
| 2026-03-24 18:48 | 42.25323 | 5.35890 | 34177 ft | 420 kts | 42° |
| 2026-03-24 18:49 | 42.29444 | 5.41452 | 34177 ft | 418 kts | 42° |
| 2026-03-24 18:49 | 42.33584 | 5.47048 | 34176 ft | 420 kts | 42° |
| 2026-03-24 18:50 | 42.37692 | 5.52613 | 34173 ft | 421 kts | 42° |
| 2026-03-24 18:50 | 42.41846 | 5.58253 | 34172 ft | 421 kts | 42° |
| 2026-03-24 18:51 | 42.45963 | 5.63852 | 34167 ft | 421 kts | 42° |
| 2026-03-24 18:51 | 42.50093 | 5.69480 | 34174 ft | 421 kts | 43° |
| 2026-03-24 18:52 | 42.54198 | 5.75086 | 34171 ft | 421 kts | 43° |
| 2026-03-24 18:52 | 42.58307 | 5.80707 | 34168 ft | 422 kts | 43° |
| 2026-03-24 18:53 | 42.62423 | 5.86351 | 34162 ft | 422 kts | 42° |
| 2026-03-24 18:53 | 42.66549 | 5.92018 | 34164 ft | 422 kts | 43° |
| 2026-03-24 18:54 | 42.70661 | 5.97677 | 34164 ft | 420 kts | 43° |
| 2026-03-24 18:54 | 42.74764 | 6.03336 | 34156 ft | 421 kts | 43° |
| 2026-03-24 18:55 | 42.78878 | 6.09020 | 34156 ft | 421 kts | 43° |
| 2026-03-24 18:55 | 42.82977 | 6.14697 | 34152 ft | 420 kts | 43° |
| 2026-03-24 18:56 | 42.87174 | 6.20209 | 34152 ft | 420 kts | 37° |
| 2026-03-24 18:56 | 42.91680 | 6.25284 | 34144 ft | 420 kts | 37° |
| 2026-03-24 18:57 | 42.96148 | 6.30382 | 34143 ft | 420 kts | 37° |
| 2026-03-24 18:57 | 43.00614 | 6.35504 | 34140 ft | 421 kts | 38° |
| 2026-03-24 18:58 | 43.05098 | 6.40663 | 34139 ft | 421 kts | 38° |
| 2026-03-24 18:58 | 43.09563 | 6.45815 | 34140 ft | 420 kts | 37° |
| 2026-03-24 18:59 | 43.14028 | 6.50977 | 34159 ft | 422 kts | 38° |
| 2026-03-24 18:59 | 43.18508 | 6.56167 | 34158 ft | 420 kts | 37° |
| 2026-03-24 19:00 | 43.22701 | 6.61770 | 34173 ft | 425 kts | 49° |
| 2026-03-24 19:00 | 43.26200 | 6.68275 | 34164 ft | 427 kts | 50° |
| 2026-03-24 19:01 | 43.29688 | 6.74823 | 34160 ft | 426 kts | 50° |
| 2026-03-24 19:01 | 43.33163 | 6.81393 | 34161 ft | 425 kts | 50° |
| 2026-03-24 19:02 | 43.36636 | 6.87986 | 34158 ft | 425 kts | 50° |
| 2026-03-24 19:02 | 43.40086 | 6.94555 | 34155 ft | 425 kts | 50° |
| 2026-03-24 19:03 | 43.43551 | 7.01168 | 34152 ft | 428 kts | 50° |
| 2026-03-24 19:03 | 43.47021 | 7.07809 | 34150 ft | 425 kts | 50° |
| 2026-03-24 19:04 | 43.50471 | 7.14428 | 34150 ft | 426 kts | 50° |
| 2026-03-24 19:04 | 43.53903 | 7.21025 | 34146 ft | 425 kts | 50° |
| 2026-03-24 19:05 | 43.57346 | 7.27657 | 34147 ft | 427 kts | 50° |
| 2026-03-24 19:05 | 43.60789 | 7.34308 | 34142 ft | 425 kts | 50° |
| 2026-03-24 19:06 | 43.64195 | 7.40899 | 34142 ft | 426 kts | 50° |
| 2026-03-24 19:06 | 43.67642 | 7.47585 | 34141 ft | 426 kts | 50° |
| 2026-03-24 19:07 | 43.71047 | 7.54205 | 34139 ft | 426 kts | 50° |
| 2026-03-24 19:07 | 43.74474 | 7.60883 | 34130 ft | 426 kts | 50° |
| 2026-03-24 19:08 | 43.77898 | 7.67574 | 34134 ft | 426 kts | 51° |
| 2026-03-24 19:08 | 43.81364 | 7.74149 | 34134 ft | 424 kts | 44° |
| 2026-03-24 19:09 | 43.85749 | 7.79457 | 34122 ft | 418 kts | 36° |
| 2026-03-24 19:09 | 43.90322 | 7.84440 | 34118 ft | 419 kts | 35° |
| 2026-03-24 19:10 | 43.94872 | 7.89450 | 34110 ft | 420 kts | 40° |
| 2026-03-24 19:10 | 43.99002 | 7.95237 | 34108 ft | 421 kts | 42° |
| 2026-03-24 19:11 | 44.03077 | 8.01034 | 34109 ft | 418 kts | 42° |
| 2026-03-24 19:11 | 44.07124 | 8.06818 | 34112 ft | 422 kts | 42° |
| 2026-03-24 19:12 | 44.11246 | 8.12729 | 34122 ft | 423 kts | 43° |
| 2026-03-24 19:12 | 44.15324 | 8.18593 | 34129 ft | 423 kts | 43° |
| 2026-03-24 19:13 | 44.19410 | 8.24480 | 34129 ft | 421 kts | 42° |
| 2026-03-24 19:13 | 44.23484 | 8.30365 | 34125 ft | 422 kts | 42° |
| 2026-03-24 19:14 | 44.27567 | 8.36274 | 34124 ft | 422 kts | 43° |
| 2026-03-24 19:14 | 44.31635 | 8.42174 | 34120 ft | 422 kts | 42° |
| 2026-03-24 19:15 | 44.35701 | 8.48085 | 34119 ft | 423 kts | 42° |
| 2026-03-24 19:15 | 44.39783 | 8.54031 | 34118 ft | 423 kts | 42° |
| 2026-03-24 19:16 | 44.43844 | 8.59959 | 34117 ft | 422 kts | 42° |
| 2026-03-24 19:16 | 44.47899 | 8.65893 | 34115 ft | 423 kts | 43° |
| 2026-03-24 19:17 | 44.51969 | 8.71860 | 34116 ft | 423 kts | 43° |
| 2026-03-24 19:17 | 44.56028 | 8.77823 | 34114 ft | 423 kts | 43° |
| 2026-03-24 19:18 | 44.60065 | 8.83767 | 34113 ft | 422 kts | 43° |
| 2026-03-24 19:18 | 44.64127 | 8.89761 | 34112 ft | 423 kts | 43° |
| 2026-03-24 19:19 | 44.68177 | 8.95750 | 34107 ft | 422 kts | 43° |
| 2026-03-24 19:19 | 44.72192 | 9.01702 | 34109 ft | 422 kts | 43° |
| 2026-03-24 19:20 | 44.76239 | 9.07712 | 34113 ft | 422 kts | 43° |
| 2026-03-24 19:20 | 44.80274 | 9.13717 | 34109 ft | 423 kts | 43° |
| 2026-03-24 19:21 | 44.84322 | 9.19756 | 34103 ft | 423 kts | 43° |
| 2026-03-24 19:21 | 44.88364 | 9.25800 | 34106 ft | 423 kts | 43° |
| 2026-03-24 19:22 | 44.92418 | 9.31873 | 34102 ft | 422 kts | 43° |
| 2026-03-24 19:22 | 44.96435 | 9.37905 | 34101 ft | 423 kts | 43° |
| 2026-03-24 19:23 | 45.00474 | 9.43983 | 34100 ft | 424 kts | 43° |
| 2026-03-24 19:23 | 45.04512 | 9.50075 | 34103 ft | 425 kts | 43° |
| 2026-03-24 19:24 | 45.08567 | 9.56203 | 34104 ft | 425 kts | 43° |
| 2026-03-24 19:24 | 45.12603 | 9.62319 | 34120 ft | 424 kts | 43° |
| 2026-03-24 19:25 | 45.16637 | 9.68443 | 34124 ft | 425 kts | 43° |
| 2026-03-24 19:25 | 45.20706 | 9.74480 | 34140 ft | 423 kts | 39° |
| 2026-03-24 19:26 | 45.25117 | 9.80029 | 34141 ft | 422 kts | 38° |
| 2026-03-24 19:26 | 45.29496 | 9.85609 | 34149 ft | 423 kts | 39° |
| 2026-03-24 19:27 | 45.33875 | 9.91224 | 34145 ft | 424 kts | 39° |
| 2026-03-24 19:27 | 45.38241 | 9.96846 | 34143 ft | 423 kts | 39° |
| 2026-03-24 19:28 | 45.42610 | 10.02488 | 34150 ft | 424 kts | 39° |
| 2026-03-24 19:28 | 45.46984 | 10.08151 | 34147 ft | 423 kts | 39° |
| 2026-03-24 19:29 | 45.51358 | 10.13826 | 34141 ft | 424 kts | 39° |
| 2026-03-24 19:29 | 45.55690 | 10.19461 | 34140 ft | 423 kts | 39° |
| 2026-03-24 19:30 | 45.60057 | 10.25152 | 34143 ft | 424 kts | 39° |
| 2026-03-24 19:30 | 45.64414 | 10.30843 | 34145 ft | 424 kts | 39° |
| 2026-03-24 19:31 | 45.68785 | 10.36564 | 34153 ft | 426 kts | 39° |
| 2026-03-24 19:31 | 45.73123 | 10.42258 | 34138 ft | 423 kts | 39° |
| 2026-03-24 19:32 | 45.77447 | 10.47943 | 34149 ft | 425 kts | 39° |
| 2026-03-24 19:32 | 45.81804 | 10.53684 | 34128 ft | 426 kts | 39° |
| 2026-03-24 19:33 | 45.86161 | 10.59439 | 34110 ft | 425 kts | 39° |
| 2026-03-24 19:33 | 45.90490 | 10.65171 | 34105 ft | 426 kts | 39° |
| 2026-03-24 19:34 | 45.95157 | 10.70271 | 34109 ft | 420 kts | 26° |
| 2026-03-24 19:34 | 46.00316 | 10.74270 | 34089 ft | 420 kts | 26° |
| 2026-03-24 19:35 | 46.05467 | 10.78258 | 34096 ft | 421 kts | 26° |
| 2026-03-24 19:35 | 46.10646 | 10.82258 | 34098 ft | 420 kts | 26° |
| 2026-03-24 19:36 | 46.15845 | 10.85919 | 34117 ft | 416 kts | 17° |
| 2026-03-24 19:36 | 46.21574 | 10.87283 | 34120 ft | 420 kts | 5° |
| 2026-03-24 19:37 | 46.27375 | 10.88308 | 34121 ft | 420 kts | 8° |
| 2026-03-24 19:37 | 46.33103 | 10.89630 | 34107 ft | 419 kts | 9° |
| 2026-03-24 19:38 | 46.38873 | 10.91103 | 34124 ft | 420 kts | 10° |
| 2026-03-24 19:38 | 46.44621 | 10.92638 | 34128 ft | 419 kts | 10° |
| 2026-03-24 19:39 | 46.50321 | 10.94190 | 34116 ft | 418 kts | 10° |
| 2026-03-24 19:39 | 46.56064 | 10.95769 | 34116 ft | 420 kts | 10° |
| 2026-03-24 19:40 | 46.61794 | 10.97355 | 34117 ft | 421 kts | 10° |
| 2026-03-24 19:40 | 46.64666 | 10.98152 | 34001 ft | 417 kts | 10° |
| 2026-03-24 19:40 | 46.67448 | 10.98925 | 33831 ft | 401 kts | 10° |